sensor_id;sensor_type;location;lat;lon;timestamp;temperature;humidity
78076;DHT22;67714;52.546;13.422;2023-02-14T00:01:58;7.5;82.2
78076;DHT22;67714;52.546;13.422;2023-02-14T00:03:59;7.5;82
78076;DHT22;67714;52.546;13.422;2023-02-14T00:06:05;7.6;81.8
78076;DHT22;67714;52.546;13.422;2023-02-14T00:08:06;7.6;81.6
78076;DHT22;67714;52.546;13.422;2023-02-14T00:10:08;7.6;81.8
78076;DHT22;67714;52.546;13.422;2023-02-14T00:12:10;7.7;81.9
78076;DHT22;67714;52.546;13.422;2023-02-14T00:14:11;7.7;81.2
78076;DHT22;67714;52.546;13.422;2023-02-14T00:16:13;7.8;81.2
78076;DHT22;67714;52.546;13.422;2023-02-14T00:18:14;7.8;81.1
78076;DHT22;67714;52.546;13.422;2023-02-14T00:20:16;7.7;81.2
78076;DHT22;67714;52.546;13.422;2023-02-14T00:22:17;7.7;81.4
78076;DHT22;67714;52.546;13.422;2023-02-14T00:24:20;7.6;81.6
78076;DHT22;67714;52.546;13.422;2023-02-14T00:26:22;7.6;81.9
78076;DHT22;67714;52.546;13.422;2023-02-14T00:28:23;7.6;81.5
78076;DHT22;67714;52.546;13.422;2023-02-14T00:30:24;7.7;81.4
78076;DHT22;67714;52.546;13.422;2023-02-14T00:32:26;7.6;81.4
78076;DHT22;67714;52.546;13.422;2023-02-14T00:34:28;7.5;82
78076;DHT22;67714;52.546;13.422;2023-02-14T00:36:29;7.5;82
78076;DHT22;67714;52.546;13.422;2023-02-14T00:38:31;7.5;82.1
78076;DHT22;67714;52.546;13.422;2023-02-14T00:40:33;7.5;81.9
78076;DHT22;67714;52.546;13.422;2023-02-14T00:42:34;7.6;81.6
78076;DHT22;67714;52.546;13.422;2023-02-14T00:44:36;7.6;81.7
78076;DHT22;67714;52.546;13.422;2023-02-14T00:46:37;7.7;80.3
78076;DHT22;67714;52.546;13.422;2023-02-14T00:48:38;7.8;80
78076;DHT22;67714;52.546;13.422;2023-02-14T00:50:40;7.8;80
78076;DHT22;67714;52.546;13.422;2023-02-14T00:52:41;7.7;80
78076;DHT22;67714;52.546;13.422;2023-02-14T00:54:43;7.7;79.9
78076;DHT22;67714;52.546;13.422;2023-02-14T00:56:44;7.7;80.2
78076;DHT22;67714;52.546;13.422;2023-02-14T00:58:45;7.6;80.7
78076;DHT22;67714;52.546;13.422;2023-02-14T01:00:47;7.6;80.5
78076;DHT22;67714;52.546;13.422;2023-02-14T01:02:48;7.6;80.7
78076;DHT22;67714;52.546;13.422;2023-02-14T01:04:49;7.6;80.8
78076;DHT22;67714;52.546;13.422;2023-02-14T01:06:51;7.7;80.7
78076;DHT22;67714;52.546;13.422;2023-02-14T01:08:52;7.6;80.8
78076;DHT22;67714;52.546;13.422;2023-02-14T01:10:53;7.7;80.7
78076;DHT22;67714;52.546;13.422;2023-02-14T01:12:56;7.6;80.8
78076;DHT22;67714;52.546;13.422;2023-02-14T01:14:57;7.6;81
78076;DHT22;67714;52.546;13.422;2023-02-14T01:16:59;7.6;81.1
78076;DHT22;67714;52.546;13.422;2023-02-14T01:19:01;7.5;81.2
78076;DHT22;67714;52.546;13.422;2023-02-14T01:21:20;7.5;81.3
78076;DHT22;67714;52.546;13.422;2023-02-14T01:23:21;7.5;81.6
78076;DHT22;67714;52.546;13.422;2023-02-14T01:25:23;7.5;81.2
78076;DHT22;67714;52.546;13.422;2023-02-14T01:27:24;7.5;81
78076;DHT22;67714;52.546;13.422;2023-02-14T01:29:26;7.5;81
78076;DHT22;67714;52.546;13.422;2023-02-14T01:31:30;7.5;81.4
78076;DHT22;67714;52.546;13.422;2023-02-14T01:33:32;7.6;80.9
78076;DHT22;67714;52.546;13.422;2023-02-14T01:35:35;7.6;80.7
78076;DHT22;67714;52.546;13.422;2023-02-14T01:37:37;7.6;80.6
78076;DHT22;67714;52.546;13.422;2023-02-14T01:39:40;7.7;80.2
78076;DHT22;67714;52.546;13.422;2023-02-14T01:41:42;7.7;80
78076;DHT22;67714;52.546;13.422;2023-02-14T01:43:48;7.6;80.1
78076;DHT22;67714;52.546;13.422;2023-02-14T01:45:50;7.6;80.2
78076;DHT22;67714;52.546;13.422;2023-02-14T01:47:53;7.7;79.7
78076;DHT22;67714;52.546;13.422;2023-02-14T01:49:59;7.6;80
78076;DHT22;67714;52.546;13.422;2023-02-14T01:52:05;7.6;79.9
78076;DHT22;67714;52.546;13.422;2023-02-14T01:54:08;7.7;79.6
78076;DHT22;67714;52.546;13.422;2023-02-14T01:56:13;7.7;80
78076;DHT22;67714;52.546;13.422;2023-02-14T01:58:20;7.7;80.2
78076;DHT22;67714;52.546;13.422;2023-02-14T02:00:24;7.7;79.9
78076;DHT22;67714;52.546;13.422;2023-02-14T02:02:26;7.6;80.3
78076;DHT22;67714;52.546;13.422;2023-02-14T02:04:30;7.6;80.4
78076;DHT22;67714;52.546;13.422;2023-02-14T02:06:34;7.5;80.4
78076;DHT22;67714;52.546;13.422;2023-02-14T02:08:40;7.5;80.9
78076;DHT22;67714;52.546;13.422;2023-02-14T02:10:43;7.5;81.1
78076;DHT22;67714;52.546;13.422;2023-02-14T02:12:47;7.5;81.2
78076;DHT22;67714;52.546;13.422;2023-02-14T02:14:52;7.5;81.3
78076;DHT22;67714;52.546;13.422;2023-02-14T02:17:01;7.6;81
78076;DHT22;67714;52.546;13.422;2023-02-14T02:19:18;7.6;80.6
78076;DHT22;67714;52.546;13.422;2023-02-14T02:22:26;7.6;80.1
78076;DHT22;67714;52.546;13.422;2023-02-14T02:24:31;7.6;80.7
78076;DHT22;67714;52.546;13.422;2023-02-14T02:26:49;7.5;81
78076;DHT22;67714;52.546;13.422;2023-02-14T02:29:07;7.5;81.2
78076;DHT22;67714;52.546;13.422;2023-02-14T02:31:25;7.5;81
78076;DHT22;67714;52.546;13.422;2023-02-14T02:33:40;7.5;80.7
78076;DHT22;67714;52.546;13.422;2023-02-14T02:35:51;7.6;80.6
78076;DHT22;67714;52.546;13.422;2023-02-14T02:38:02;7.6;80.1
78076;DHT22;67714;52.546;13.422;2023-02-14T02:40:19;7.6;79.9
78076;DHT22;67714;52.546;13.422;2023-02-14T02:42:27;7.6;80
78076;DHT22;67714;52.546;13.422;2023-02-14T02:44:40;7.5;80.6
78076;DHT22;67714;52.546;13.422;2023-02-14T02:46:48;7.5;80.8
78076;DHT22;67714;52.546;13.422;2023-02-14T02:48:57;7.4;81.1
78076;DHT22;67714;52.546;13.422;2023-02-14T02:51:03;7.4;81.1
78076;DHT22;67714;52.546;13.422;2023-02-14T02:53:13;7.4;80.8
78076;DHT22;67714;52.546;13.422;2023-02-14T02:55:19;7.5;80.7
78076;DHT22;67714;52.546;13.422;2023-02-14T02:57:26;7.5;80.8
78076;DHT22;67714;52.546;13.422;2023-02-14T02:59:31;7.4;81.1
78076;DHT22;67714;52.546;13.422;2023-02-14T03:01:34;7.4;81.4
78076;DHT22;67714;52.546;13.422;2023-02-14T03:03:38;7.4;81.5
78076;DHT22;67714;52.546;13.422;2023-02-14T03:05:41;7.5;81
78076;DHT22;67714;52.546;13.422;2023-02-14T03:07:43;7.4;80.9
78076;DHT22;67714;52.546;13.422;2023-02-14T03:09:50;7.4;81.2
78076;DHT22;67714;52.546;13.422;2023-02-14T03:11:57;7.4;81.2
78076;DHT22;67714;52.546;13.422;2023-02-14T03:14:11;7.4;80.9
78076;DHT22;67714;52.546;13.422;2023-02-14T03:16:29;7.4;81
78076;DHT22;67714;52.546;13.422;2023-02-14T03:18:38;7.4;81.3
78076;DHT22;67714;52.546;13.422;2023-02-14T03:20:48;7.5;80.9
78076;DHT22;67714;52.546;13.422;2023-02-14T03:22:56;7.5;80.6
78076;DHT22;67714;52.546;13.422;2023-02-14T03:25:05;7.5;80.6
78076;DHT22;67714;52.546;13.422;2023-02-14T03:27:15;7.5;80.7
78076;DHT22;67714;52.546;13.422;2023-02-14T03:29:24;7.5;80.6
78076;DHT22;67714;52.546;13.422;2023-02-14T03:31:30;7.4;80.6
78076;DHT22;67714;52.546;13.422;2023-02-14T03:33:41;7.4;80.9
78076;DHT22;67714;52.546;13.422;2023-02-14T03:35:48;7.4;80.7
78076;DHT22;67714;52.546;13.422;2023-02-14T03:37:54;7.4;81
78076;DHT22;67714;52.546;13.422;2023-02-14T03:40:00;7.5;81
78076;DHT22;67714;52.546;13.422;2023-02-14T03:42:06;7.5;80.7
78076;DHT22;67714;52.546;13.422;2023-02-14T03:44:09;7.5;80.5
78076;DHT22;67714;52.546;13.422;2023-02-14T03:46:17;7.5;80.5
78076;DHT22;67714;52.546;13.422;2023-02-14T03:48:22;7.5;80.6
78076;DHT22;67714;52.546;13.422;2023-02-14T03:50:26;7.5;80.6
78076;DHT22;67714;52.546;13.422;2023-02-14T03:52:30;7.5;81.1
78076;DHT22;67714;52.546;13.422;2023-02-14T03:54:34;7.5;81.5
78076;DHT22;67714;52.546;13.422;2023-02-14T03:56:37;7.5;80.8
78076;DHT22;67714;52.546;13.422;2023-02-14T03:58:42;7.5;80.6
78076;DHT22;67714;52.546;13.422;2023-02-14T04:00:46;7.5;80.9
78076;DHT22;67714;52.546;13.422;2023-02-14T04:02:50;7.5;80.4
78076;DHT22;67714;52.546;13.422;2023-02-14T04:04:54;7.5;80.1
78076;DHT22;67714;52.546;13.422;2023-02-14T04:06:56;7.6;79.5
78076;DHT22;67714;52.546;13.422;2023-02-14T04:08:58;7.5;79.9
78076;DHT22;67714;52.546;13.422;2023-02-14T04:11:00;7.5;80.3
78076;DHT22;67714;52.546;13.422;2023-02-14T04:13:02;7.4;80.6
78076;DHT22;67714;52.546;13.422;2023-02-14T04:15:04;7.4;80.9
78076;DHT22;67714;52.546;13.422;2023-02-14T04:17:06;7.4;81
78076;DHT22;67714;52.546;13.422;2023-02-14T04:19:08;7.4;80.9
78076;DHT22;67714;52.546;13.422;2023-02-14T04:21:09;7.4;80.7
78076;DHT22;67714;52.546;13.422;2023-02-14T04:23:11;7.4;80.5
78076;DHT22;67714;52.546;13.422;2023-02-14T04:25:12;7.4;80.4
78076;DHT22;67714;52.546;13.422;2023-02-14T04:27:14;7.5;80.6
78076;DHT22;67714;52.546;13.422;2023-02-14T04:29:15;7.4;80.8
78076;DHT22;67714;52.546;13.422;2023-02-14T04:31:17;7.4;81.2
78076;DHT22;67714;52.546;13.422;2023-02-14T04:33:18;7.3;81.4
78076;DHT22;67714;52.546;13.422;2023-02-14T04:35:19;7.3;81.6
78076;DHT22;67714;52.546;13.422;2023-02-14T04:37:21;7.3;82
78076;DHT22;67714;52.546;13.422;2023-02-14T04:39:22;7.4;81.7
78076;DHT22;67714;52.546;13.422;2023-02-14T04:41:24;7.4;81.8
78076;DHT22;67714;52.546;13.422;2023-02-14T04:43:25;7.3;81.7
78076;DHT22;67714;52.546;13.422;2023-02-14T04:45:27;7.3;81.7
78076;DHT22;67714;52.546;13.422;2023-02-14T04:47:28;7.3;81.9
78076;DHT22;67714;52.546;13.422;2023-02-14T04:49:30;7.3;81.7
78076;DHT22;67714;52.546;13.422;2023-02-14T04:51:31;7.4;81.8
78076;DHT22;67714;52.546;13.422;2023-02-14T04:53:32;7.3;81.7
78076;DHT22;67714;52.546;13.422;2023-02-14T04:55:34;7.3;81.6
78076;DHT22;67714;52.546;13.422;2023-02-14T04:57:35;7.2;81.8
78076;DHT22;67714;52.546;13.422;2023-02-14T04:59:37;7.2;82
78076;DHT22;67714;52.546;13.422;2023-02-14T05:01:38;7.2;82.4
78076;DHT22;67714;52.546;13.422;2023-02-14T05:03:40;7.2;82.4
78076;DHT22;67714;52.546;13.422;2023-02-14T05:05:41;7.2;82.4
78076;DHT22;67714;52.546;13.422;2023-02-14T05:07:42;7.2;82.5
78076;DHT22;67714;52.546;13.422;2023-02-14T05:09:43;7.2;82.7
78076;DHT22;67714;52.546;13.422;2023-02-14T05:11:45;7.2;82.4
78076;DHT22;67714;52.546;13.422;2023-02-14T05:13:46;7.3;82.3
78076;DHT22;67714;52.546;13.422;2023-02-14T05:15:48;7.3;82.5
78076;DHT22;67714;52.546;13.422;2023-02-14T05:17:49;7.4;81.7
78076;DHT22;67714;52.546;13.422;2023-02-14T05:19:50;7.4;81.1
78076;DHT22;67714;52.546;13.422;2023-02-14T05:21:52;7.4;81.3
78076;DHT22;67714;52.546;13.422;2023-02-14T05:23:54;7.4;81.3
78076;DHT22;67714;52.546;13.422;2023-02-14T05:25:56;7.4;81.2
78076;DHT22;67714;52.546;13.422;2023-02-14T05:27:57;7.4;80.8
78076;DHT22;67714;52.546;13.422;2023-02-14T05:29:58;7.4;80.8
78076;DHT22;67714;52.546;13.422;2023-02-14T05:32:00;7.4;81
78076;DHT22;67714;52.546;13.422;2023-02-14T05:34:01;7.4;80.9
78076;DHT22;67714;52.546;13.422;2023-02-14T05:36:03;7.5;81
78076;DHT22;67714;52.546;13.422;2023-02-14T05:38:04;7.4;80.6
78076;DHT22;67714;52.546;13.422;2023-02-14T05:40:06;7.4;80.5
78076;DHT22;67714;52.546;13.422;2023-02-14T05:42:08;7.4;80.5
78076;DHT22;67714;52.546;13.422;2023-02-14T05:44:09;7.4;80.7
78076;DHT22;67714;52.546;13.422;2023-02-14T05:46:10;7.4;80.9
78076;DHT22;67714;52.546;13.422;2023-02-14T05:48:12;7.4;81.4
78076;DHT22;67714;52.546;13.422;2023-02-14T05:50:14;7.4;81.9
78076;DHT22;67714;52.546;13.422;2023-02-14T05:52:15;7.4;81.7
78076;DHT22;67714;52.546;13.422;2023-02-14T05:54:18;7.3;81.7
78076;DHT22;67714;52.546;13.422;2023-02-14T05:56:19;7.3;81.9
78076;DHT22;67714;52.546;13.422;2023-02-14T05:58:20;7.3;82
78076;DHT22;67714;52.546;13.422;2023-02-14T06:00:22;7.3;81.8
78076;DHT22;67714;52.546;13.422;2023-02-14T06:02:23;7.4;81.8
78076;DHT22;67714;52.546;13.422;2023-02-14T06:04:25;7.4;81.8
78076;DHT22;67714;52.546;13.422;2023-02-14T06:06:26;7.4;82
78076;DHT22;67714;52.546;13.422;2023-02-14T06:08:29;7.4;81.7
78076;DHT22;67714;52.546;13.422;2023-02-14T06:10:30;7.4;81.4
78076;DHT22;67714;52.546;13.422;2023-02-14T06:12:32;7.4;81.5
78076;DHT22;67714;52.546;13.422;2023-02-14T06:14:33;7.4;81.3
78076;DHT22;67714;52.546;13.422;2023-02-14T06:16:35;7.4;81.5
78076;DHT22;67714;52.546;13.422;2023-02-14T06:18:36;7.4;81.1
78076;DHT22;67714;52.546;13.422;2023-02-14T06:20:37;7.4;81.1
78076;DHT22;67714;52.546;13.422;2023-02-14T06:22:38;7.4;80.7
78076;DHT22;67714;52.546;13.422;2023-02-14T06:24:40;7.4;80
78076;DHT22;67714;52.546;13.422;2023-02-14T06:26:41;7.4;79.9
78076;DHT22;67714;52.546;13.422;2023-02-14T06:28:42;7.4;80.3
78076;DHT22;67714;52.546;13.422;2023-02-14T06:30:44;7.4;80.7
78076;DHT22;67714;52.546;13.422;2023-02-14T06:32:46;7.4;80.8
78076;DHT22;67714;52.546;13.422;2023-02-14T06:34:47;7.4;81.4
78076;DHT22;67714;52.546;13.422;2023-02-14T06:36:49;7.4;81.3
78076;DHT22;67714;52.546;13.422;2023-02-14T06:38:50;7.5;80.7
78076;DHT22;67714;52.546;13.422;2023-02-14T06:40:51;7.5;80.7
78076;DHT22;67714;52.546;13.422;2023-02-14T06:42:54;7.4;81
78076;DHT22;67714;52.546;13.422;2023-02-14T06:44:55;7.5;81.1
78076;DHT22;67714;52.546;13.422;2023-02-14T06:46:57;7.5;80.9
78076;DHT22;67714;52.546;13.422;2023-02-14T06:48:59;7.5;80.7
78076;DHT22;67714;52.546;13.422;2023-02-14T06:51:00;7.5;80.2
78076;DHT22;67714;52.546;13.422;2023-02-14T06:53:03;7.5;80.5
78076;DHT22;67714;52.546;13.422;2023-02-14T06:55:05;7.6;80.8
78076;DHT22;67714;52.546;13.422;2023-02-14T06:57:06;7.5;80.7
78076;DHT22;67714;52.546;13.422;2023-02-14T06:59:10;7.6;81
78076;DHT22;67714;52.546;13.422;2023-02-14T07:01:12;7.6;80.8
78076;DHT22;67714;52.546;13.422;2023-02-14T07:03:13;7.6;80.7
78076;DHT22;67714;52.546;13.422;2023-02-14T07:05:16;7.6;80.6
78076;DHT22;67714;52.546;13.422;2023-02-14T07:07:17;7.6;80.2
78076;DHT22;67714;52.546;13.422;2023-02-14T07:09:19;7.6;80.3
78076;DHT22;67714;52.546;13.422;2023-02-14T07:11:20;7.6;80.4
78076;DHT22;67714;52.546;13.422;2023-02-14T07:13:23;7.6;80.5
78076;DHT22;67714;52.546;13.422;2023-02-14T07:15:25;7.7;80.4
78076;DHT22;67714;52.546;13.422;2023-02-14T07:17:26;7.7;79.6
78076;DHT22;67714;52.546;13.422;2023-02-14T07:19:27;7.7;79.7
78076;DHT22;67714;52.546;13.422;2023-02-14T07:21:29;7.7;80.4
78076;DHT22;67714;52.546;13.422;2023-02-14T07:23:30;7.7;80.2
78076;DHT22;67714;52.546;13.422;2023-02-14T07:25:32;7.7;80.2
78076;DHT22;67714;52.546;13.422;2023-02-14T07:27:35;7.7;80.4
78076;DHT22;67714;52.546;13.422;2023-02-14T07:29:38;7.8;80.4
78076;DHT22;67714;52.546;13.422;2023-02-14T07:31:39;7.8;80.3
78076;DHT22;67714;52.546;13.422;2023-02-14T07:33:40;7.8;79.6
78076;DHT22;67714;52.546;13.422;2023-02-14T07:35:43;7.8;79.6
78076;DHT22;67714;52.546;13.422;2023-02-14T07:37:45;7.8;79.9
78076;DHT22;67714;52.546;13.422;2023-02-14T07:39:47;7.9;79.7
78076;DHT22;67714;52.546;13.422;2023-02-14T07:41:49;7.9;79.3
78076;DHT22;67714;52.546;13.422;2023-02-14T07:43:51;7.9;79.5
78076;DHT22;67714;52.546;13.422;2023-02-14T07:45:52;7.9;79.3
78076;DHT22;67714;52.546;13.422;2023-02-14T07:47:55;7.9;79
78076;DHT22;67714;52.546;13.422;2023-02-14T07:49:56;7.9;78.9
78076;DHT22;67714;52.546;13.422;2023-02-14T07:51:58;7.9;79.1
78076;DHT22;67714;52.546;13.422;2023-02-14T07:54:00;7.9;78.9
78076;DHT22;67714;52.546;13.422;2023-02-14T07:56:01;8;78.6
78076;DHT22;67714;52.546;13.422;2023-02-14T07:58:03;8;78
78076;DHT22;67714;52.546;13.422;2023-02-14T08:00:06;8;77.9
78076;DHT22;67714;52.546;13.422;2023-02-14T08:02:11;8;78.3
78076;DHT22;67714;52.546;13.422;2023-02-14T08:04:13;8;78.5
78076;DHT22;67714;52.546;13.422;2023-02-14T08:06:17;8.1;77.6
78076;DHT22;67714;52.546;13.422;2023-02-14T08:08:19;8.1;77.1
78076;DHT22;67714;52.546;13.422;2023-02-14T08:10:21;8.1;76.8
78076;DHT22;67714;52.546;13.422;2023-02-14T08:12:24;8.1;77
78076;DHT22;67714;52.546;13.422;2023-02-14T08:14:26;8.2;77
78076;DHT22;67714;52.546;13.422;2023-02-14T08:16:27;8.2;77
78076;DHT22;67714;52.546;13.422;2023-02-14T08:18:33;8.2;77.8
78076;DHT22;67714;52.546;13.422;2023-02-14T08:20:38;8.2;77.1
78076;DHT22;67714;52.546;13.422;2023-02-14T08:22:43;8.2;76.9
78076;DHT22;67714;52.546;13.422;2023-02-14T08:24:45;8.3;77.2
78076;DHT22;67714;52.546;13.422;2023-02-14T08:26:46;8.3;76.6
78076;DHT22;67714;52.546;13.422;2023-02-14T08:28:47;8.3;76.8
78076;DHT22;67714;52.546;13.422;2023-02-14T08:30:49;8.3;77.3
78076;DHT22;67714;52.546;13.422;2023-02-14T08:32:53;8.4;77
78076;DHT22;67714;52.546;13.422;2023-02-14T08:34:55;8.4;76.7
78076;DHT22;67714;52.546;13.422;2023-02-14T08:36:57;8.5;76.7
78076;DHT22;67714;52.546;13.422;2023-02-14T08:38:59;8.4;76.7
78076;DHT22;67714;52.546;13.422;2023-02-14T08:41:01;8.5;76.7
78076;DHT22;67714;52.546;13.422;2023-02-14T08:43:04;8.5;76.7
78076;DHT22;67714;52.546;13.422;2023-02-14T08:45:07;8.5;76.6
78076;DHT22;67714;52.546;13.422;2023-02-14T08:47:17;8.5;76.3
78076;DHT22;67714;52.546;13.422;2023-02-14T08:49:18;8.6;76.1
78076;DHT22;67714;52.546;13.422;2023-02-14T08:51:22;8.6;76.1
78076;DHT22;67714;52.546;13.422;2023-02-14T08:53:25;8.6;75.8
78076;DHT22;67714;52.546;13.422;2023-02-14T08:55:26;8.6;75.3
78076;DHT22;67714;52.546;13.422;2023-02-14T08:57:28;8.6;75.2
78076;DHT22;67714;52.546;13.422;2023-02-14T08:59:29;8.6;75.3
78076;DHT22;67714;52.546;13.422;2023-02-14T09:01:32;8.6;75.9
78076;DHT22;67714;52.546;13.422;2023-02-14T09:03:34;8.6;75.6
78076;DHT22;67714;52.546;13.422;2023-02-14T09:05:38;8.7;75.7
78076;DHT22;67714;52.546;13.422;2023-02-14T09:07:42;8.7;76.1
78076;DHT22;67714;52.546;13.422;2023-02-14T09:10:46;8.8;75.9
78076;DHT22;67714;52.546;13.422;2023-02-14T09:12:50;8.9;75.8
78076;DHT22;67714;52.546;13.422;2023-02-14T09:15:10;9;75.2
78076;DHT22;67714;52.546;13.422;2023-02-14T09:17:12;9;74.8
78076;DHT22;67714;52.546;13.422;2023-02-14T09:19:17;9;74.9
78076;DHT22;67714;52.546;13.422;2023-02-14T09:21:22;9;74.4
78076;DHT22;67714;52.546;13.422;2023-02-14T09:23:23;9;74.2
78076;DHT22;67714;52.546;13.422;2023-02-14T09:25:25;9;74.6
78076;DHT22;67714;52.546;13.422;2023-02-14T09:27:28;9;74.9
78076;DHT22;67714;52.546;13.422;2023-02-14T09:29:30;9;75
78076;DHT22;67714;52.546;13.422;2023-02-14T09:31:32;9.1;74.6
78076;DHT22;67714;52.546;13.422;2023-02-14T09:33:34;9.1;74.7
78076;DHT22;67714;52.546;13.422;2023-02-14T09:35:35;9.2;74.5
78076;DHT22;67714;52.546;13.422;2023-02-14T09:37:37;9.2;74.3
78076;DHT22;67714;52.546;13.422;2023-02-14T09:39:38;9.3;73.6
78076;DHT22;67714;52.546;13.422;2023-02-14T09:42:02;9.3;73.8
78076;DHT22;67714;52.546;13.422;2023-02-14T09:44:07;9.3;73.2
78076;DHT22;67714;52.546;13.422;2023-02-14T09:46:32;9.3;73
78076;DHT22;67714;52.546;13.422;2023-02-14T09:48:41;9.3;73.6
78076;DHT22;67714;52.546;13.422;2023-02-14T09:50:47;9.4;73.5
78076;DHT22;67714;52.546;13.422;2023-02-14T09:52:51;9.4;72.4
78076;DHT22;67714;52.546;13.422;2023-02-14T09:55:11;9.4;72.7
78076;DHT22;67714;52.546;13.422;2023-02-14T09:57:24;9.2;72.9
78076;DHT22;67714;52.546;13.422;2023-02-14T09:59:30;9.2;73.3
78076;DHT22;67714;52.546;13.422;2023-02-14T10:01:41;9.3;73.4
78076;DHT22;67714;52.546;13.422;2023-02-14T10:03:50;9.3;73.5
78076;DHT22;67714;52.546;13.422;2023-02-14T10:05:58;9.4;73.8
78076;DHT22;67714;52.546;13.422;2023-02-14T10:08:08;9.4;73.3
78076;DHT22;67714;52.546;13.422;2023-02-14T10:10:15;9.4;72.7
78076;DHT22;67714;52.546;13.422;2023-02-14T10:12:22;9.4;72.1
78076;DHT22;67714;52.546;13.422;2023-02-14T10:14:28;9.4;72.1
78076;DHT22;67714;52.546;13.422;2023-02-14T10:16:36;9.4;73
78076;DHT22;67714;52.546;13.422;2023-02-14T10:18:42;9.5;74
78076;DHT22;67714;52.546;13.422;2023-02-14T10:20:50;9.5;73.1
78076;DHT22;67714;52.546;13.422;2023-02-14T10:22:56;9.5;72.3
78076;DHT22;67714;52.546;13.422;2023-02-14T10:25:03;9.5;72.1
78076;DHT22;67714;52.546;13.422;2023-02-14T10:27:10;9.4;72.7
78076;DHT22;67714;52.546;13.422;2023-02-14T10:29:16;9.4;73
78076;DHT22;67714;52.546;13.422;2023-02-14T10:31:19;9.4;72.2
78076;DHT22;67714;52.546;13.422;2023-02-14T10:33:26;9.4;72.7
78076;DHT22;67714;52.546;13.422;2023-02-14T10:35:32;9.4;73.3
78076;DHT22;67714;52.546;13.422;2023-02-14T10:37:51;9.4;73.6
78076;DHT22;67714;52.546;13.422;2023-02-14T10:40:05;9.5;73.4
78076;DHT22;67714;52.546;13.422;2023-02-14T10:42:16;9.6;72.4
78076;DHT22;67714;52.546;13.422;2023-02-14T10:44:25;9.6;72.4
78076;DHT22;67714;52.546;13.422;2023-02-14T10:46:33;9.7;72.2
78076;DHT22;67714;52.546;13.422;2023-02-14T10:48:45;9.6;71.5
78076;DHT22;67714;52.546;13.422;2023-02-14T10:50:51;9.6;72
78076;DHT22;67714;52.546;13.422;2023-02-14T10:53:01;9.6;72.1
78076;DHT22;67714;52.546;13.422;2023-02-14T10:55:11;9.7;72
78076;DHT22;67714;52.546;13.422;2023-02-14T10:57:16;9.7;72.2
78076;DHT22;67714;52.546;13.422;2023-02-14T10:59:22;9.8;72.5
78076;DHT22;67714;52.546;13.422;2023-02-14T11:01:24;9.9;71.7
78076;DHT22;67714;52.546;13.422;2023-02-14T11:03:26;9.8;71.6
78076;DHT22;67714;52.546;13.422;2023-02-14T11:05:31;9.9;70.9
78076;DHT22;67714;52.546;13.422;2023-02-14T11:07:34;9.8;71.4
78076;DHT22;67714;52.546;13.422;2023-02-14T11:09:35;9.8;71.5
78076;DHT22;67714;52.546;13.422;2023-02-14T11:11:39;9.9;71.3
78076;DHT22;67714;52.546;13.422;2023-02-14T11:13:44;10;71.2
78076;DHT22;67714;52.546;13.422;2023-02-14T11:15:45;10;70.6
78076;DHT22;67714;52.546;13.422;2023-02-14T11:17:47;9.9;70.5
78076;DHT22;67714;52.546;13.422;2023-02-14T11:19:55;9.9;70.7
78076;DHT22;67714;52.546;13.422;2023-02-14T11:21:58;9.9;70.5
78076;DHT22;67714;52.546;13.422;2023-02-14T11:23:59;9.9;70.5
78076;DHT22;67714;52.546;13.422;2023-02-14T11:26:04;9.8;70.5
78076;DHT22;67714;52.546;13.422;2023-02-14T11:28:12;9.8;70.7
78076;DHT22;67714;52.546;13.422;2023-02-14T11:30:17;9.8;70.1
78076;DHT22;67714;52.546;13.422;2023-02-14T11:32:21;9.7;71.1
78076;DHT22;67714;52.546;13.422;2023-02-14T11:34:30;9.7;71.5
78076;DHT22;67714;52.546;13.422;2023-02-14T11:36:39;9.9;71.7
78076;DHT22;67714;52.546;13.422;2023-02-14T11:38:42;10;71.5
78076;DHT22;67714;52.546;13.422;2023-02-14T11:40:52;10;70.6
78076;DHT22;67714;52.546;13.422;2023-02-14T11:42:57;10;71.4
78076;DHT22;67714;52.546;13.422;2023-02-14T11:44:59;10.1;70.3
78076;DHT22;67714;52.546;13.422;2023-02-14T11:47:21;10.1;70.9
78076;DHT22;67714;52.546;13.422;2023-02-14T11:49:29;10.2;69.7
78076;DHT22;67714;52.546;13.422;2023-02-14T11:51:35;10.1;69.5
78076;DHT22;67714;52.546;13.422;2023-02-14T11:53:45;10.1;69.5
78076;DHT22;67714;52.546;13.422;2023-02-14T11:55:50;10;69.6
78076;DHT22;67714;52.546;13.422;2023-02-14T11:57:53;10;70.3
78076;DHT22;67714;52.546;13.422;2023-02-14T11:59:57;10.1;71.4
78076;DHT22;67714;52.546;13.422;2023-02-14T12:02:03;10.2;70.9
78076;DHT22;67714;52.546;13.422;2023-02-14T12:04:14;10.2;69.7
78076;DHT22;67714;52.546;13.422;2023-02-14T12:06:22;10.2;69.5
78076;DHT22;67714;52.546;13.422;2023-02-14T12:08:25;10.2;70.2
78076;DHT22;67714;52.546;13.422;2023-02-14T12:10:30;10.1;70.5
78076;DHT22;67714;52.546;13.422;2023-02-14T12:12:34;10.2;69.9
78076;DHT22;67714;52.546;13.422;2023-02-14T12:14:36;10.2;69.9
78076;DHT22;67714;52.546;13.422;2023-02-14T12:16:43;10.2;70
78076;DHT22;67714;52.546;13.422;2023-02-14T12:18:50;10.3;69.7
78076;DHT22;67714;52.546;13.422;2023-02-14T12:20:55;10.3;69.6
78076;DHT22;67714;52.546;13.422;2023-02-14T12:23:00;10.3;69.7
78076;DHT22;67714;52.546;13.422;2023-02-14T12:25:09;10.4;69
78076;DHT22;67714;52.546;13.422;2023-02-14T12:27:17;10.4;68.8
78076;DHT22;67714;52.546;13.422;2023-02-14T12:29:22;10.4;68.8
78076;DHT22;67714;52.546;13.422;2023-02-14T12:31:25;10.4;69
78076;DHT22;67714;52.546;13.422;2023-02-14T12:33:26;10.4;69
78076;DHT22;67714;52.546;13.422;2023-02-14T12:35:35;10.4;67.6
78076;DHT22;67714;52.546;13.422;2023-02-14T12:37:49;10.3;67.6
78076;DHT22;67714;52.546;13.422;2023-02-14T12:40:03;10.3;68
78076;DHT22;67714;52.546;13.422;2023-02-14T12:42:14;10.3;68.8
78076;DHT22;67714;52.546;13.422;2023-02-14T12:44:24;10.3;68.8
78076;DHT22;67714;52.546;13.422;2023-02-14T12:46:37;10.3;67.8
78076;DHT22;67714;52.546;13.422;2023-02-14T12:48:48;10.3;68.4
78076;DHT22;67714;52.546;13.422;2023-02-14T12:50:54;10.3;69
78076;DHT22;67714;52.546;13.422;2023-02-14T12:53:11;10.3;68.7
78076;DHT22;67714;52.546;13.422;2023-02-14T12:55:33;10.3;68.9
78076;DHT22;67714;52.546;13.422;2023-02-14T12:57:42;10.3;68.7
78076;DHT22;67714;52.546;13.422;2023-02-14T12:59:53;10.4;69.2
78076;DHT22;67714;52.546;13.422;2023-02-14T13:02:18;10.4;68.7
78076;DHT22;67714;52.546;13.422;2023-02-14T13:04:46;10.4;68.5
78076;DHT22;67714;52.546;13.422;2023-02-14T13:06:53;10.4;68.9
78076;DHT22;67714;52.546;13.422;2023-02-14T13:09:04;10.4;69.6
78076;DHT22;67714;52.546;13.422;2023-02-14T13:11:14;10.5;69.3
78076;DHT22;67714;52.546;13.422;2023-02-14T13:13:20;10.5;68.5
78076;DHT22;67714;52.546;13.422;2023-02-14T13:15:29;10.5;68.3
78076;DHT22;67714;52.546;13.422;2023-02-14T13:17:37;10.4;68.5
78076;DHT22;67714;52.546;13.422;2023-02-14T13:19:43;10.5;69.1
78076;DHT22;67714;52.546;13.422;2023-02-14T13:21:48;10.5;68.8
78076;DHT22;67714;52.546;13.422;2023-02-14T13:23:52;10.5;68.5
78076;DHT22;67714;52.546;13.422;2023-02-14T13:26:00;10.4;67.9
78076;DHT22;67714;52.546;13.422;2023-02-14T13:28:05;10.4;68.4
78076;DHT22;67714;52.546;13.422;2023-02-14T13:30:16;10.3;68.9
78076;DHT22;67714;52.546;13.422;2023-02-14T13:32:23;10.3;68.9
78076;DHT22;67714;52.546;13.422;2023-02-14T13:34:27;10.3;68.8
78076;DHT22;67714;52.546;13.422;2023-02-14T13:36:32;10.2;69.6
78076;DHT22;67714;52.546;13.422;2023-02-14T13:38:38;10.2;69.3